Helena, Mississippi
Current Conditions -  °F | °C
As of 3:53 PM on Friday 24 Oct 2014 (Local Time) from KPQL Reporting Station
Clear Clear  
Wind Chill: 78°   Ceiling: Unl
Heat Index: 78°   Visibility: 10mi
Dew Point: 42°   Wind: 7mph
Humidity: 28%   Direction: 40°NE
Pressure: 30.01"   Gusts: NA
Location:  30.3649°N, 88.5432°W
Report Text: KPQL 242053Z 04006KT 10SM CLR 26/06 A3001 RMK AO2 SLP162 T02560056 56016
Loading
Personal Weather Stations






























Interactive Weather Map
Tropical Storm Tracking
New forecast layout! Learn more

10-Day Weather Forecast

Advertisements
Track Severe Weather on mobile